Time;durP1;ratioP1;P1;durP2;ratioP2;P2;SDS_P1;SDS_P2;PMS_P1;PMS_P2;Temp;Humidity;BMP_temperature;BMP_pressure;BME280_temperature;BME280_humidity;BME280_pressure;Samples;Min_cycle;Max_cycle;Signal;HPM_P1;HPM_P2
2022/01/26 00:06:44;;;;;;;31.63;17.17;;;;;;;-7.35;100.00;100164.30;1545367;93;21076;-76
2022/01/26 00:09:12;;;;;;;33.50;17.60;;;;;;;-7.37;100.00;100159.10;1545438;93;21079;-75
2022/01/26 00:11:39;;;;;;;30.57;17.00;;;;;;;-7.40;100.00;100153.10;1545594;93;21118;-75
2022/01/26 00:14:13;;;;;;;31.27;17.10;;;;;;;-7.42;100.00;100152.30;1545522;93;21044;-76
2022/01/26 00:16:43;;;;;;;33.10;17.10;;;;;;;-7.43;100.00;100146.67;1545802;93;21148;-75
2022/01/26 00:19:18;;;;;;;33.87;17.27;;;;;;;-7.41;100.00;100146.16;1552923;91;21596;-74
2022/01/26 00:21:48;;;;;;;32.05;16.07;;;;;;;-7.40;100.00;100152.66;1561731;92;21073;-74
2022/01/26 00:29:24;;;;;;;31.40;17.10;;;;;;;-7.40;100.00;100136.02;1563059;92;21060;-75
2022/01/26 00:40:17;;;;;;;31.70;15.67;;;;;;;-7.37;100.00;100119.69;1672563;85;21036;-75
2022/01/26 00:42:42;;;;;;;33.77;16.57;;;;;;;-7.39;100.00;100116.27;1667718;86;21595;-75
2022/01/26 00:45:09;;;;;;;30.73;15.97;;;;;;;-7.43;100.00;100113.83;1670253;86;21587;-75
2022/01/26 00:47:38;;;;;;;35.33;17.90;;;;;;;-7.49;100.00;100113.56;1670258;85;21132;-75
2022/01/26 00:50:10;;;;;;;37.60;18.23;;;;;;;-7.50;100.00;100109.25;1661172;86;21519;-76
2022/01/26 00:52:42;;;;;;;33.10;17.30;;;;;;;-7.52;100.00;100104.51;1670168;86;21035;-75
2022/01/26 00:55:07;;;;;;;34.77;18.10;;;;;;;-7.55;100.00;100104.14;1667172;84;20999;-76
2022/01/26 00:57:33;;;;;;;43.07;19.53;;;;;;;-7.58;100.00;100106.02;1660274;86;21039;-74
2022/01/26 01:00:00;;;;;;;42.83;19.73;;;;;;;-7.64;100.00;100097.91;1660133;86;21550;-75
2022/01/26 01:02:29;;;;;;;38.03;17.80;;;;;;;-7.65;100.00;100091.81;1670585;86;21032;-75
2022/01/26 01:04:59;;;;;;;37.80;18.20;;;;;;;-7.62;100.00;100089.52;1677662;85;21008;-76
2022/01/26 01:07:25;;;;;;;39.23;18.60;;;;;;;-7.59;100.00;100087.26;1677552;85;21531;-75
2022/01/26 01:09:52;;;;;;;39.17;19.30;;;;;;;-7.61;100.00;100082.06;1660148;86;21043;-75
2022/01/26 01:12:19;;;;;;;41.30;20.03;;;;;;;-7.62;100.00;100087.36;1659876;86;21086;-75
2022/01/26 01:14:46;;;;;;;42.40;21.23;;;;;;;-7.63;100.00;100085.20;1660063;84;20999;-74
2022/01/26 01:17:22;;;;;;;42.40;20.30;;;;;;;-7.67;100.00;100090.14;1660438;86;21043;-75
2022/01/26 01:20:00;;;;;;;40.60;20.90;;;;;;;-7.66;100.00;100080.89;1675285;86;21059;-75
2022/01/26 01:30:03;;;;;;;41.40;20.83;;;;;;;-7.65;100.00;100070.81;1670607;86;21016;-73
2022/01/26 01:34:59;;;;;;;42.33;20.80;;;;;;;-7.64;100.00;100065.94;1603568;89;21098;-75
2022/01/26 01:37:26;;;;;;;39.63;20.27;;;;;;;-7.68;100.00;100064.34;1603655;89;21073;-76
2022/01/26 01:39:53;;;;;;;37.20;18.67;;;;;;;-7.69;100.00;100062.62;1603818;88;21144;-74
2022/01/26 01:42:21;;;;;;;37.47;19.77;;;;;;;-7.67;100.00;100060.78;1603948;89;21102;-74
2022/01/26 01:44:48;;;;;;;38.53;19.80;;;;;;;-7.69;100.00;100054.73;1603952;88;21098;-75
2022/01/26 01:47:16;;;;;;;31.80;17.20;;;;;;;-7.67;100.00;100052.91;1604024;89;21119;-75
2022/01/26 01:49:43;;;;;;;35.10;18.80;;;;;;;-7.66;100.00;100052.48;1625879;87;21065;-75
2022/01/26 01:52:14;;;;;;;37.37;19.17;;;;;;;-7.64;100.00;100050.65;1638706;87;21005;-74
2022/01/26 01:54:41;;;;;;;36.80;19.00;;;;;;;-7.62;100.00;100038.78;1640178;87;21053;-75
2022/01/26 01:57:08;;;;;;;39.53;19.30;;;;;;;-7.61;100.00;100041.78;1640590;87;21061;-75
2022/01/26 01:59:36;;;;;;;36.70;18.83;;;;;;;-7.60;100.00;100039.58;1640098;87;21069;-75
2022/01/26 02:02:04;;;;;;;34.07;18.40;;;;;;;-7.60;100.00;100033.01;1616957;87;21613;-74
2022/01/26 02:04:32;;;;;;;37.20;18.43;;;;;;;-7.60;100.00;100039.11;1638589;87;21068;-74
2022/01/26 02:07:02;;;;;;;38.80;19.50;;;;;;;-7.61;100.00;100033.48;1639899;87;21136;-75
2022/01/26 02:09:29;;;;;;;36.37;18.17;;;;;;;-7.60;100.00;100032.55;1640092;87;21065;-75
2022/01/26 02:11:57;;;;;;;36.97;17.93;;;;;;;-7.56;100.00;100031.54;1666582;84;21089;-75
2022/01/26 02:14:35;;;;;;;32.67;16.63;;;;;;;-7.52;100.00;100030.50;1715054;83;21040;-74
2022/01/26 02:17:12;;;;;;;34.50;17.70;;;;;;;-7.49;100.00;100023.83;1712250;84;21096;-74
2022/01/26 02:49:53;;;;;;;34.80;18.50;;;;;;;-7.46;100.00;100012.34;1696762;84;21045;-74
2022/01/26 02:52:38;;;;;;;29.50;15.70;;;;;;;-7.43;100.00;100021.89;1712203;84;21088;-75
2022/01/26 03:00:29;;;;;;;28.20;15.37;;;;;;;-7.48;100.00;100020.27;1677383;85;21585;-75
2022/01/26 03:03:10;;;;;;;34.03;17.80;;;;;;;-7.50;100.00;100020.79;1655107;86;21042;-74
2022/01/26 03:05:34;;;;;;;31.20;16.60;;;;;;;-7.51;100.00;100020.37;1677755;86;21082;-75
2022/01/26 03:08:02;;;;;;;29.10;15.17;;;;;;;-7.49;100.00;100019.89;1677377;86;21043;-74
2022/01/26 03:10:49;;;;;;;29.93;15.47;;;;;;;-7.51;100.00;100015.12;1677160;86;21102;-74
2022/01/26 03:13:12;;;;;;;29.20;15.90;;;;;;;-7.56;100.00;100017.09;1677158;86;21094;-75
2022/01/26 03:15:43;;;;;;;30.17;16.47;;;;;;;-7.59;100.00;100017.20;1676543;86;21120;-75
2022/01/26 03:20:52;;;;;;;32.03;17.07;;;;;;;-7.55;100.00;100009.59;1677273;84;21078;-74
2022/01/26 03:31:53;;;;;;;33.67;16.13;;;;;;;-7.55;100.00;99999.55;1677362;86;21070;-75
2022/01/26 03:36:26;;;;;;;31.93;16.73;;;;;;;-7.52;100.00;100001.61;1672265;84;21523;-75
2022/01/26 03:38:59;;;;;;;34.23;17.53;;;;;;;-7.48;100.00;99998.41;1673051;86;21039;-75
2022/01/26 03:43:48;;;;;;;28.90;15.23;;;;;;;-7.45;100.00;100000.93;1672139;86;21062;-75
2022/01/26 03:46:15;;;;;;;29.00;15.43;;;;;;;-7.46;100.00;99992.17;1672222;86;21031;-75
2022/01/26 03:48:43;;;;;;;30.63;16.53;;;;;;;-7.46;100.00;99984.29;1672202;86;21090;-75
2022/01/26 03:51:10;;;;;;;29.57;15.33;;;;;;;-7.53;100.00;99984.59;1672398;86;21027;-75
2022/01/26 03:53:38;;;;;;;28.90;15.10;;;;;;;-7.54;100.00;99983.75;1672127;86;21083;-75
2022/01/26 03:56:05;;;;;;;27.83;14.00;;;;;;;-7.56;100.00;99978.14;1691065;83;21065;-76
2022/01/26 03:58:32;;;;;;;28.07;13.80;;;;;;;-7.59;100.00;99982.21;1727837;82;21073;-75
2022/01/26 04:00:59;;;;;;;31.23;15.77;;;;;;;-7.65;100.00;99980.21;1701620;83;21036;-76
2022/01/26 04:03:26;;;;;;;28.53;15.03;;;;;;;-7.66;100.00;99978.95;1727769;82;21021;-76
2022/01/26 04:05:53;;;;;;;31.30;16.63;;;;;;;-7.62;100.00;99971.81;1701320;83;21052;-75
2022/01/26 04:08:27;;;;;;;32.03;16.23;;;;;;;-7.60;100.00;99966.05;1727372;83;21088;-76
2022/01/26 04:13:27;;;;;;;27.77;14.37;;;;;;;-7.56;100.00;99967.62;1710054;83;21547;-75
2022/01/26 04:15:55;;;;;;;26.80;13.63;;;;;;;-7.57;100.00;99968.56;1666477;85;21142;-74
2022/01/26 04:18:28;;;;;;;28.93;15.00;;;;;;;-7.57;100.00;99964.63;1666922;85;21080;-74
2022/01/26 04:20:54;;;;;;;29.87;14.90;;;;;;;-7.58;100.00;99974.72;1648203;86;21040;-73
2022/01/26 04:23:32;;;;;;;28.23;14.90;;;;;;;-7.56;100.00;99976.39;1667444;86;21081;-75
2022/01/26 04:25:50;;;;;;;30.73;15.13;;;;;;;-7.55;100.00;99975.45;1667931;86;21040;-75
2022/01/26 04:28:24;;;;;;;29.43;13.83;;;;;;;-7.58;100.00;99970.78;1666736;85;21155;-74
2022/01/26 04:30:47;;;;;;;27.17;12.07;;;;;;;-7.61;100.00;99971.77;1666884;86;21071;-74
2022/01/26 04:33:14;;;;;;;28.07;13.07;;;;;;;-7.62;100.00;99967.88;1666653;86;21597;-74
2022/01/26 04:35:44;;;;;;;27.17;11.87;;;;;;;-7.64;100.00;99966.15;1662212;85;21606;-75
2022/01/26 04:38:23;;;;;;;31.10;14.40;;;;;;;-7.64;100.00;99972.72;1639302;86;21053;-75
2022/01/26 04:41:10;;;;;;;29.23;13.43;;;;;;;-7.68;100.00;99975.53;1636373;86;21021;-74
2022/01/26 04:43:29;;;;;;;21.70;9.93;;;;;;;-7.66;100.00;99966.67;1639665;86;21002;-72
2022/01/26 04:45:56;;;;;;;19.70;8.87;;;;;;;-7.67;100.00;99973.29;1639434;86;21077;-75
2022/01/26 04:48:25;;;;;;;21.83;8.53;;;;;;;-7.69;100.00;99964.62;1660770;86;21620;-71
2022/01/26 04:50:54;;;;;;;24.37;10.00;;;;;;;-7.72;100.00;99964.30;1638281;86;20993;-73
2022/01/26 04:53:21;;;;;;;29.97;12.13;;;;;;;-7.71;100.00;99967.77;1637878;86;21539;-78
2022/01/26 04:55:48;;;;;;;23.33;9.93;;;;;;;-7.71;100.00;99956.80;1641338;86;21496;-78
2022/01/26 04:58:15;;;;;;;25.33;11.27;;;;;;;-7.66;100.00;99968.45;1668617;85;21052;-75
2022/01/26 05:00:42;;;;;;;30.80;13.53;;;;;;;-7.66;100.00;99970.61;1649151;86;21095;-70
2022/01/26 05:03:09;;;;;;;27.70;13.37;;;;;;;-7.66;100.00;99966.67;1668310;85;21071;-69
2022/01/26 05:05:36;;;;;;;29.83;14.67;;;;;;;-7.62;100.00;99962.63;1668038;86;21047;-70
2022/01/26 05:08:04;;;;;;;26.47;13.93;;;;;;;-7.65;100.00;99967.09;1648951;85;21126;-70
2022/01/26 05:10:36;;;;;;;31.50;16.20;;;;;;;-7.72;100.00;99967.35;1668080;85;21568;-70
2022/01/26 05:13:02;;;;;;;22.47;10.50;;;;;;;-7.74;100.00;99955.59;1668175;86;21059;-70
2022/01/26 05:15:31;;;;;;;27.03;13.93;;;;;;;-7.70;100.00;99957.64;1668009;86;21067;-69
2022/01/26 05:17:59;;;;;;;31.00;15.07;;;;;;;-7.71;100.00;99965.14;1667984;85;21079;-70
2022/01/26 05:20:26;;;;;;;25.00;13.07;;;;;;;-7.68;100.00;99958.47;1668588;86;21067;-70
2022/01/26 05:22:54;;;;;;;21.40;10.43;;;;;;;-7.65;100.00;99966.20;1668099;85;21071;-69
2022/01/26 05:25:21;;;;;;;25.20;11.40;;;;;;;-7.64;100.00;99964.84;1667421;85;21111;-71
2022/01/26 05:27:48;;;;;;;26.40;12.33;;;;;;;-7.63;100.00;99961.78;1648118;86;21064;-70
2022/01/26 05:30:15;;;;;;;28.23;12.93;;;;;;;-7.61;100.00;99968.26;1648064;86;21055;-70
2022/01/26 05:32:42;;;;;;;23.10;10.83;;;;;;;-7.61;100.00;99965.63;1647892;86;21071;-70
2022/01/26 05:35:09;;;;;;;29.43;15.73;;;;;;;-7.66;100.00;99973.23;1673336;85;21079;-70
2022/01/26 05:37:43;;;;;;;26.93;13.00;;;;;;;-7.70;100.00;99973.39;1660509;85;21031;-70
2022/01/26 05:40:12;;;;;;;22.90;10.57;;;;;;;-7.69;100.00;99975.97;1678163;84;21062;-70
2022/01/26 05:42:41;;;;;;;20.73;8.83;;;;;;;-7.66;100.00;99976.33;1678415;84;21108;-71
2022/01/26 05:45:19;;;;;;;17.93;8.07;;;;;;;-7.65;100.00;99974.97;1678298;86;21055;-68
2022/01/26 05:47:42;;;;;;;17.00;7.57;;;;;;;-7.68;100.00;99975.53;1661103;85;21031;-69
2022/01/26 05:50:08;;;;;;;19.70;8.80;;;;;;;-7.70;100.00;99978.21;1677930;84;21110;-70
2022/01/26 05:52:37;;;;;;;20.97;8.97;;;;;;;-7.70;100.00;99976.02;1678570;85;21035;-69
2022/01/26 05:55:06;;;;;;;20.30;8.80;;;;;;;-7.70;100.00;99976.02;1678648;85;21464;-70
2022/01/26 05:57:34;;;;;;;19.63;8.97;;;;;;;-7.69;100.00;99976.44;1661172;85;21083;-70
2022/01/26 06:00:01;;;;;;;23.27;9.90;;;;;;;-7.71;100.00;99976.48;1678376;85;21090;-71
2022/01/26 06:02:29;;;;;;;20.27;9.30;;;;;;;-7.68;100.00;99979.01;1669052;84;21490;-69
2022/01/26 06:04:57;;;;;;;21.03;9.73;;;;;;;-7.66;100.00;99986.83;1690621;84;21157;-70
2022/01/26 06:07:25;;;;;;;21.47;10.17;;;;;;;-7.68;100.00;99985.57;1696003;83;21004;-69
2022/01/26 06:09:52;;;;;;;22.60;9.90;;;;;;;-7.66;100.00;99990.30;1695888;84;21460;-70
2022/01/26 06:12:19;;;;;;;19.87;9.20;;;;;;;-7.64;100.00;99984.53;1697115;84;21067;-68
2022/01/26 06:14:52;;;;;;;22.80;10.17;;;;;;;-7.61;100.00;99986.64;1670319;84;21004;-69
2022/01/26 06:17:20;;;;;;;25.32;10.95;;;;;;;-7.64;100.00;99988.94;1708641;83;21034;-69
2022/01/26 06:19:47;;;;;;;29.57;12.83;;;;;;;-7.61;100.00;99986.64;1659973;84;21028;-69
2022/01/26 06:22:14;;;;;;;21.43;10.10;;;;;;;-7.57;100.00;99978.60;1708302;84;21091;-70
2022/01/26 06:24:41;;;;;;;21.63;10.07;;;;;;;-7.56;100.00;99980.77;1682509;84;21036;-70
2022/01/26 06:27:09;;;;;;;34.63;14.43;;;;;;;-7.55;100.00;99973.30;1682431;84;21585;-71
2022/01/26 06:29:36;;;;;;;22.43;10.47;;;;;;;-7.54;100.00;99970.61;1682473;84;21064;-70
2022/01/26 06:32:04;;;;;;;24.90;11.40;;;;;;;-7.48;100.00;99977.40;1708381;83;21016;-68
2022/01/26 06:34:38;;;;;;;24.10;11.33;;;;;;;-7.48;100.00;99972.14;1707742;84;21095;-71
2022/01/26 06:37:03;;;;;;;47.00;19.20;;;;;;;-7.55;100.00;99975.45;1704330;84;21056;-71
2022/01/26 06:39:30;;;;;;;53.50;21.57;;;;;;;-7.58;100.00;99974.25;1708487;83;21532;-71
2022/01/26 06:41:57;;;;;;;89.87;36.60;;;;;;;-7.59;100.00;99976.96;1708470;83;21069;-70
2022/01/26 06:44:30;;;;;;;84.00;35.83;;;;;;;-7.56;100.00;99977.70;1708248;83;21036;-69
2022/01/26 06:49:30;;;;;;;57.50;25.40;;;;;;;-7.50;100.00;99983.17;1683953;84;21096;-69
2022/01/26 06:51:59;;;;;;;38.93;18.87;;;;;;;-7.46;100.00;99980.81;1682056;84;21102;-69
2022/01/26 06:54:26;;;;;;;45.17;18.20;;;;;;;-7.43;100.00;99975.45;1707770;83;21032;-69
2022/01/26 06:56:53;;;;;;;37.93;17.17;;;;;;;-7.41;100.00;99976.25;1687716;84;21016;-70
2022/01/26 06:59:24;;;;;;;32.10;14.70;;;;;;;-7.41;100.00;99973.62;1683306;85;21020;-68
2022/01/26 07:01:51;;;;;;;27.90;13.30;;;;;;;-7.41;100.00;99973.62;1621186;88;20987;-69
2022/01/26 07:04:18;;;;;;;34.13;16.43;;;;;;;-7.35;100.00;99972.52;1600272;88;21053;-68
2022/01/26 07:06:46;;;;;;;24.97;12.67;;;;;;;-7.31;100.00;99971.04;1610564;87;21069;-69
2022/01/26 07:09:13;;;;;;;22.67;11.13;;;;;;;-7.26;100.00;99969.53;1619827;88;21031;-70
2022/01/26 07:11:40;;;;;;;24.23;11.07;;;;;;;-7.19;100.00;99962.27;1598092;89;21078;-70
2022/01/26 07:14:09;;;;;;;23.40;11.50;;;;;;;-7.22;100.00;99961.95;1619535;89;21620;-68
2022/01/26 07:22:08;;;;;;;30.23;14.43;;;;;;;-7.18;100.00;99954.33;1619174;88;21606;-70
2022/01/26 07:24:35;;;;;;;23.73;10.90;;;;;;;-7.09;100.00;99952.64;1619437;89;21063;-69
2022/01/26 07:27:05;;;;;;;23.10;10.73;;;;;;;-7.01;100.00;99946.22;1598324;87;21075;-70
2022/01/26 07:29:32;;;;;;;21.60;9.93;;;;;;;-6.95;100.00;99940.72;1607393;88;21146;-70
2022/01/26 07:32:00;;;;;;;20.70;9.87;;;;;;;-6.91;100.00;99948.88;1606396;88;21094;-70
2022/01/26 07:34:27;;;;;;;22.10;10.17;;;;;;;-6.90;100.00;99954.54;1580075;88;21098;-70
2022/01/26 07:36:59;;;;;;;25.20;12.83;;;;;;;-6.91;100.00;99948.88;1567368;90;21017;-69
2022/01/26 07:39:43;;;;;;;36.07;18.83;;;;;;;-6.93;100.00;99952.88;1588924;89;21608;-68
2022/01/26 07:42:00;;;;;;;44.87;23.73;;;;;;;-6.90;100.00;99953.23;1586979;90;21080;-69
2022/01/26 07:44:27;;;;;;;41.10;22.37;;;;;;;-6.81;100.00;99962.05;1588068;90;21064;-69
2022/01/26 07:46:54;;;;;;;26.27;14.20;;;;;;;-6.75;100.00;99963.09;1587198;90;21117;-70
2022/01/26 07:49:22;;;;;;;25.83;13.03;;;;;;;-6.63;100.00;99964.83;1570374;90;21096;-69
2022/01/26 07:51:50;;;;;;;25.30;12.47;;;;;;;-6.57;100.00;99965.88;1593970;88;21198;-70
2022/01/26 07:54:19;;;;;;;33.83;16.60;;;;;;;-6.55;100.00;99967.55;1590998;90;21049;-70
2022/01/26 07:56:47;;;;;;;26.63;13.80;;;;;;;-6.51;100.00;99973.05;1585252;90;21029;-69
2022/01/26 07:59:14;;;;;;;31.50;15.97;;;;;;;-6.45;100.00;99971.09;1619829;86;21006;-70
2022/01/26 08:01:41;;;;;;;28.23;15.23;;;;;;;-6.41;100.00;99965.64;1653315;86;21045;-71
2022/01/26 08:04:08;;;;;;;23.43;12.03;;;;;;;-6.38;100.00;99972.54;1635785;86;21506;-70
2022/01/26 08:06:36;;;;;;;22.27;10.43;;;;;;;-6.32;100.00;99965.69;1628650;86;21061;-73
2022/01/26 08:09:04;;;;;;;23.83;12.47;;;;;;;-6.34;100.00;99972.80;1661064;86;21033;-74
2022/01/26 08:11:31;;;;;;;23.10;10.47;;;;;;;-6.39;100.00;99981.34;1640212;86;21069;-71
2022/01/26 08:13:59;;;;;;;24.53;10.70;;;;;;;-6.39;100.00;99986.16;1647974;85;21033;-71
2022/01/26 08:16:26;;;;;;;23.97;11.90;;;;;;;-6.39;100.00;99976.08;1668748;86;21025;-71
2022/01/26 08:18:53;;;;;;;28.33;14.50;;;;;;;-6.44;100.00;99989.92;1625076;86;21170;-70
2022/01/26 08:21:20;;;;;;;28.53;13.33;;;;;;;-6.44;100.00;99985.97;1658259;86;21029;-69
2022/01/26 08:23:48;;;;;;;29.20;14.30;;;;;;;-6.42;100.00;99981.50;1661183;86;21053;-71
2022/01/26 08:26:20;;;;;;;39.97;20.87;;;;;;;-6.47;100.00;99987.41;1658738;84;21057;-71
2022/01/26 08:28:50;;;;;;;28.70;14.63;;;;;;;-6.50;100.00;99980.05;1656991;85;21084;-72
2022/01/26 08:31:17;;;;;;;38.30;21.63;;;;;;;-6.47;100.00;99978.20;1646678;87;21548;-70
2022/01/26 08:33:46;;;;;;;30.43;15.93;;;;;;;-6.52;100.00;99983.17;1650280;86;21521;-70
2022/01/26 08:36:13;;;;;;;31.07;14.07;;;;;;;-6.50;100.00;99982.67;1644437;84;21116;-71
2022/01/26 08:38:40;;;;;;;27.00;14.13;;;;;;;-6.46;100.00;99987.34;1679927;83;21493;-70
2022/01/26 08:41:09;;;;;;;31.23;15.83;;;;;;;-6.47;100.00;99986.09;1691333;84;21076;-69
2022/01/26 08:43:37;;;;;;;32.87;16.43;;;;;;;-6.49;100.00;99983.05;1649230;84;21029;-71
2022/01/26 08:46:04;;;;;;;34.00;17.53;;;;;;;-6.50;100.00;99984.42;1669960;85;21098;-71
2022/01/26 08:48:32;;;;;;;34.03;16.83;;;;;;;-6.49;100.00;99987.47;1688335;84;21024;-71
2022/01/26 08:50:59;;;;;;;32.87;18.03;;;;;;;-6.49;100.00;99984.84;1660116;85;21008;-72
2022/01/26 08:53:26;;;;;;;31.33;17.13;;;;;;;-6.53;100.00;99985.42;1650079;85;20997;-71
2022/01/26 08:55:53;;;;;;;35.13;19.10;;;;;;;-6.51;100.00;99985.36;1662954;85;21021;-71
2022/01/26 08:58:20;;;;;;;40.10;21.33;;;;;;;-6.50;100.00;99981.80;1667387;84;21052;-71
2022/01/26 09:00:47;;;;;;;41.40;22.60;;;;;;;-6.40;100.00;99967.81;1687075;84;21023;-71
2022/01/26 09:03:15;;;;;;;38.97;21.10;;;;;;;-6.29;100.00;99968.19;1688153;84;21005;-71
2022/01/26 09:05:43;;;;;;;37.43;20.17;;;;;;;-6.24;100.00;99968.85;1683790;84;21177;-71
2022/01/26 09:08:10;;;;;;;38.87;21.90;;;;;;;-6.21;100.00;99964.78;1665524;84;21068;-70
2022/01/26 09:10:39;;;;;;;39.63;21.10;;;;;;;-6.17;100.00;99963.71;1689026;84;21012;-70
2022/01/26 09:13:07;;;;;;;46.13;24.83;;;;;;;-6.15;100.00;99967.59;1687080;84;21028;-70
2022/01/26 09:15:34;;;;;;;49.83;29.87;;;;;;;-6.13;100.00;99966.59;1688351;83;21038;-71
2022/01/26 09:18:04;;;;;;;59.87;34.50;;;;;;;-6.09;100.00;99969.10;1659269;84;21031;-71
2022/01/26 09:20:34;;;;;;;45.67;26.43;;;;;;;-6.14;100.00;99964.06;1676149;84;21084;-72
2022/01/26 09:23:02;;;;;;;58.73;34.70;;;;;;;-6.14;100.00;99967.53;1672529;85;21528;-71
2022/01/26 09:25:31;;;;;;;57.97;30.93;;;;;;;-6.09;100.00;99963.40;1689091;84;21001;-71
2022/01/26 09:28:01;;;;;;;47.70;26.17;;;;;;;-6.07;100.00;99965.50;1654253;86;21062;-70
2022/01/26 09:30:28;;;;;;;45.57;25.00;;;;;;;-6.14;100.00;99967.53;1650217;86;21089;-72
2022/01/26 09:32:55;;;;;;;44.57;22.70;;;;;;;-6.23;100.00;99967.06;1627372;86;21027;-71
2022/01/26 09:35:23;;;;;;;38.63;21.40;;;;;;;-6.20;100.00;99973.52;1650146;86;21119;-71
2022/01/26 09:37:50;;;;;;;37.50;21.80;;;;;;;-6.20;100.00;99966.47;1664543;86;21100;-71
2022/01/26 09:40:17;;;;;;;33.23;19.77;;;;;;;-6.16;100.00;99969.38;1624981;87;21071;-71
2022/01/26 09:42:44;;;;;;;47.37;23.57;;;;;;;-6.12;100.00;99959.58;1647793;85;21530;-71
2022/01/26 09:45:17;;;;;;;36.27;19.67;;;;;;;-6.06;100.00;99957.97;1644736;86;21656;-71
2022/01/26 09:47:45;;;;;;;37.13;21.43;;;;;;;-5.99;100.00;99954.14;1650799;85;21111;-70
2022/01/26 09:50:12;;;;;;;31.70;17.03;;;;;;;-5.94;100.00;99953.92;1652075;85;21139;-71
2022/01/26 09:52:46;;;;;;;31.47;16.87;;;;;;;-5.89;100.00;99952.41;1625742;87;21072;-69
2022/01/26 09:55:09;;;;;;;28.40;15.67;;;;;;;-5.87;100.00;99948.77;1621083;86;21055;-72
2022/01/26 09:57:38;;;;;;;28.37;16.20;;;;;;;-5.83;100.00;99947.70;1651843;86;21022;-71
2022/01/26 10:00:07;;;;;;;32.77;18.07;;;;;;;-5.85;100.00;99942.97;1653432;86;21174;-72
2022/01/26 10:02:39;;;;;;;34.57;20.83;;;;;;;-5.79;100.00;99949.28;1653774;86;21048;-71
2022/01/26 10:05:10;;;;;;;43.47;26.27;;;;;;;-5.80;100.00;99942.77;1633776;86;21532;-72
2022/01/26 10:07:49;;;;;;;38.83;21.50;;;;;;;-5.73;100.00;99942.88;1653825;86;21160;-70
2022/01/26 10:15:51;;;;;;;34.37;20.47;;;;;;;-5.95;100.00;99941.66;1657823;86;21041;-72
2022/01/26 10:18:17;;;;;;;38.83;21.75;;;;;;;-6.09;100.00;99941.45;1653610;86;21104;-72
2022/01/26 10:20:52;;;;;;;33.13;18.10;;;;;;;-6.18;100.00;99934.38;1656206;86;21036;-71
2022/01/26 10:23:25;;;;;;;25.23;12.80;;;;;;;-6.12;100.00;99943.31;1652957;86;21542;-72
2022/01/26 10:26:05;;;;;;;;;;;;;;;-6.02;100.00;99941.58;1656057;86;21309;-72
2022/01/26 10:28:51;;;;;;;30.80;16.83;;;;;;;-5.97;100.00;99937.81;1644546;86;20160;-72
2022/01/26 10:31:22;;;;;;;40.27;23.30;;;;;;;-5.93;100.00;99932.79;1641551;86;21073;-73
2022/01/26 10:34:06;;;;;;;51.10;29.33;;;;;;;-5.91;100.00;99928.77;1642115;86;21051;-71
2022/01/26 10:36:42;;;;;;;29.60;15.50;;;;;;;-5.95;100.00;99926.74;1562646;91;21145;-74
2022/01/26 10:39:24;;;;;;;50.07;27.07;;;;;;;-5.98;100.00;99929.53;1551842;91;21116;-71
2022/01/26 10:41:52;;;;;;;68.63;35.63;;;;;;;-5.95;100.00;99917.97;1527956;94;21089;-70
2022/01/26 10:44:35;;;;;;;46.13;22.67;;;;;;;-5.87;100.00;99922.44;1528160;94;21647;-71
2022/01/26 10:47:03;;;;;;;54.67;32.77;;;;;;;-5.85;100.00;99922.37;1527102;92;21149;-70
2022/01/26 10:52:23;;;;;;;29.90;14.67;;;;;;;-5.82;100.00;99923.55;1443751;98;21173;-73
2022/01/26 10:54:49;;;;;;;31.87;18.43;;;;;;;-5.80;100.00;99920.38;1441082;99;21286;-72
2022/01/26 10:57:16;;;;;;;29.97;14.00;;;;;;;-5.84;100.00;99922.30;1425543;99;21149;-75
2022/01/26 10:59:46;;;;;;;28.00;13.30;;;;;;;-5.86;100.00;99920.20;1444085;99;21145;-73
2022/01/26 11:02:16;;;;;;;39.87;20.23;;;;;;;-5.83;100.00;99925.78;1461629;98;21192;-72
2022/01/26 11:04:43;;;;;;;29.47;15.47;;;;;;;-5.86;100.00;99928.11;1447283;98;21129;-73
2022/01/26 11:07:11;;;;;;;37.20;18.70;;;;;;;-5.91;100.00;99930.09;1444919;98;21236;-74
2022/01/26 11:09:42;;;;;;;53.90;29.23;;;;;;;-5.93;100.00;99923.58;1443670;99;21134;-74
2022/01/26 11:12:13;;;;;;;47.03;20.70;;;;;;;-5.86;100.00;99924.59;1464838;97;21390;-73
2022/01/26 11:14:49;;;;;;;41.17;23.83;;;;;;;-5.82;100.00;99925.72;1451996;97;21130;-71
2022/01/26 11:17:37;;;;;;;30.40;16.90;;;;;;;-5.83;100.00;99919.20;1472355;97;21598;-72
2022/01/26 11:20:34;;;;;;;29.43;16.07;;;;;;;-5.88;100.00;99931.24;1388638;102;21145;-74
2022/01/26 11:23:04;;;;;;;25.57;12.93;;;;;;;-5.86;100.00;99927.23;1393677;102;21149;-72
2022/01/26 11:25:42;;;;;;;26.45;14.55;;;;;;;-5.94;100.00;99927.59;1349147;105;21718;-71
2022/01/26 11:28:23;;;;;;;27.80;14.47;;;;;;;-6.06;100.00;99918.48;1334015;105;21153;-72
2022/01/26 11:30:51;;;;;;;27.40;13.23;;;;;;;-6.10;100.00;99919.55;1349659;105;21700;-71
2022/01/26 11:33:24;;;;;;;32.20;15.63;;;;;;;-6.11;100.00;99913.88;1327136;106;21172;-72
2022/01/26 11:35:53;;;;;;;29.23;14.40;;;;;;;-6.07;100.00;99914.16;1339533;106;21896;-72
2022/01/26 11:47:30;;;;;;;30.73;17.83;;;;;;;-6.18;100.00;99908.06;1393747;101;21169;-70
2022/01/26 11:50:15;;;;;;;27.87;14.40;;;;;;;-6.16;100.00;99907.97;1400223;101;21616;-72
2022/01/26 11:53:09;;;;;;;23.33;12.23;;;;;;;-6.11;100.00;99891.51;1387514;101;21080;-72
2022/01/26 11:55:43;;;;;;;29.30;13.45;;;;;;;-6.08;100.00;99897.95;1429099;99;21102;-71
2022/01/26 11:58:32;;;;;;;26.97;14.30;;;;;;;-6.07;100.00;99897.05;1444329;99;21110;-72
2022/01/26 12:01:13;;;;;;;24.13;12.53;;;;;;;-6.03;100.00;99899.08;1446396;98;21224;-71
2022/01/26 12:03:43;;;;;;;25.43;13.37;;;;;;;-6.00;100.00;99901.11;1446253;99;21034;-71
2022/01/26 12:06:05;;;;;;;25.97;14.50;;;;;;;-5.96;100.00;99901.36;1446483;99;21157;-71
2022/01/26 12:08:38;;;;;;;23.53;12.57;;;;;;;-5.92;100.00;99898.09;1461833;98;21147;-71
2022/01/26 12:11:10;;;;;;;24.07;12.10;;;;;;;-5.85;100.00;99899.51;1473064;94;21052;-72
2022/01/26 12:13:39;;;;;;;;;;;;;;;-5.88;100.00;99898.33;1527281;92;21123;-72
2022/01/26 12:18:54;;;;;;;34.87;18.70;;;;;;;-5.93;100.00;99905.14;1432311;99;21128;-70
2022/01/26 12:38:19;;;;;;;28.77;15.20;;;;;;;-6.23;100.00;99910.48;1491104;95;21172;-71
2022/01/26 12:43:38;;;;;;;33.07;15.60;;;;;;;-6.32;100.00;99906.03;1491900;96;21119;-71
2022/01/26 12:46:07;;;;;;;28.67;16.30;;;;;;;-6.32;100.00;99915.25;1491440;95;21195;-72
2022/01/26 12:48:39;;;;;;;34.03;19.90;;;;;;;-6.28;100.00;99905.44;1501168;95;21702;-71
2022/01/26 12:51:06;;;;;;;27.57;15.83;;;;;;;-6.32;100.00;99909.11;1542084;91;21040;-72
2022/01/26 12:53:38;;;;;;;24.97;13.50;;;;;;;-6.34;100.00;99902.63;1540985;93;21630;-71
2022/01/26 12:56:12;;;;;;;27.20;14.03;;;;;;;-6.37;100.00;99908.48;1530228;93;21662;-70
2022/01/26 12:58:41;;;;;;;29.80;17.07;;;;;;;-6.41;100.00;99912.14;1530843;93;21091;-70
2022/01/26 13:01:17;;;;;;;34.77;20.10;;;;;;;-6.46;100.00;99906.23;1544342;91;21108;-71
2022/01/26 13:03:47;;;;;;;32.80;16.27;;;;;;;-6.46;100.00;99903.59;1538859;93;21062;-71
2022/01/26 13:06:23;;;;;;;29.40;16.77;;;;;;;-6.45;100.00;99903.53;1547765;93;21128;-70
2022/01/26 13:08:52;;;;;;;26.80;14.53;;;;;;;-6.48;100.00;99903.66;1547206;91;21548;-70
2022/01/26 13:11:35;;;;;;;32.90;18.87;;;;;;;-6.50;100.00;99902.87;1517882;93;21149;-70
2022/01/26 13:14:20;;;;;;;36.37;21.50;;;;;;;-6.56;100.00;99907.95;1547576;93;21191;-69
2022/01/26 13:17:18;;;;;;;33.27;17.30;;;;;;;-6.61;100.00;99903.34;1672905;86;21484;-71
2022/01/26 13:25:15;;;;;;;29.43;15.93;;;;;;;-6.62;100.00;99903.40;1656348;86;21529;-72
2022/01/26 13:27:55;;;;;;;25.20;13.97;;;;;;;-6.66;100.00;99903.99;1669913;86;21054;-70
2022/01/26 13:30:42;;;;;;;33.87;19.20;;;;;;;-6.70;100.00;99903.73;1646870;86;21099;-70
2022/01/26 13:35:44;;;;;;;28.63;16.33;;;;;;;-6.73;100.00;99902.55;1678090;84;21544;-72
2022/01/26 13:43:52;;;;;;;28.97;15.20;;;;;;;-6.73;100.00;99906.49;1629199;87;21058;-70
2022/01/26 13:51:20;;;;;;;32.27;17.53;;;;;;;-6.65;100.00;99907.50;1612819;89;21561;-70